sensor_id;sensor_type;location;lat;lon;timestamp;P1;durP1;ratioP1;P2;durP2;ratioP2
15254;SDS011;7730;49.610;11.136;2023-07-29T00:02:00;4.22;;;2.38;;
15254;SDS011;7730;49.610;11.136;2023-07-29T00:04:27;5.78;;;2.30;;
15254;SDS011;7730;49.610;11.136;2023-07-29T00:06:54;5.47;;;2.30;;
15254;SDS011;7730;49.610;11.136;2023-07-29T00:09:21;4.88;;;2.28;;
15254;SDS011;7730;49.610;11.136;2023-07-29T00:11:48;6.80;;;2.40;;
15254;SDS011;7730;49.610;11.136;2023-07-29T00:14:17;6.40;;;2.40;;
15254;SDS011;7730;49.610;11.136;2023-07-29T00:16:44;3.72;;;2.55;;
15254;SDS011;7730;49.610;11.136;2023-07-29T00:19:11;4.15;;;2.35;;
15254;SDS011;7730;49.610;11.136;2023-07-29T00:21:38;4.68;;;2.50;;
15254;SDS011;7730;49.610;11.136;2023-07-29T00:24:06;6.40;;;2.55;;
15254;SDS011;7730;49.610;11.136;2023-07-29T00:26:33;3.83;;;2.20;;
15254;SDS011;7730;49.610;11.136;2023-07-29T00:29:00;4.72;;;2.30;;
15254;SDS011;7730;49.610;11.136;2023-07-29T00:31:28;4.80;;;2.40;;
15254;SDS011;7730;49.610;11.136;2023-07-29T00:33:55;5.28;;;2.20;;
15254;SDS011;7730;49.610;11.136;2023-07-29T00:36:23;5.68;;;2.17;;
15254;SDS011;7730;49.610;11.136;2023-07-29T00:38:50;4.45;;;2.00;;
15254;SDS011;7730;49.610;11.136;2023-07-29T00:41:19;5.13;;;2.13;;
15254;SDS011;7730;49.610;11.136;2023-07-29T00:43:47;2.72;;;2.00;;
15254;SDS011;7730;49.610;11.136;2023-07-29T00:46:14;3.58;;;2.17;;
15254;SDS011;7730;49.610;11.136;2023-07-29T00:48:43;3.35;;;2.22;;
15254;SDS011;7730;49.610;11.136;2023-07-29T00:51:10;6.45;;;2.22;;
15254;SDS011;7730;49.610;11.136;2023-07-29T00:53:37;3.50;;;2.05;;
15254;SDS011;7730;49.610;11.136;2023-07-29T00:56:04;3.92;;;2.20;;
15254;SDS011;7730;49.610;11.136;2023-07-29T00:58:31;4.88;;;2.25;;
15254;SDS011;7730;49.610;11.136;2023-07-29T01:00:58;3.30;;;2.20;;
15254;SDS011;7730;49.610;11.136;2023-07-29T01:03:25;5.22;;;2.17;;
15254;SDS011;7730;49.610;11.136;2023-07-29T01:05:59;2.95;;;2.10;;
15254;SDS011;7730;49.610;11.136;2023-07-29T01:08:31;5.47;;;2.40;;
15254;SDS011;7730;49.610;11.136;2023-07-29T01:11:01;5.50;;;2.28;;
15254;SDS011;7730;49.610;11.136;2023-07-29T01:13:34;2.85;;;2.10;;
15254;SDS011;7730;49.610;11.136;2023-07-29T01:16:06;4.22;;;2.38;;
15254;SDS011;7730;49.610;11.136;2023-07-29T01:18:35;4.28;;;2.28;;
15254;SDS011;7730;49.610;11.136;2023-07-29T01:21:06;6.45;;;2.25;;
15254;SDS011;7730;49.610;11.136;2023-07-29T01:23:35;3.50;;;2.10;;
15254;SDS011;7730;49.610;11.136;2023-07-29T01:26:02;6.53;;;2.30;;
15254;SDS011;7730;49.610;11.136;2023-07-29T01:28:29;5.28;;;2.35;;
15254;SDS011;7730;49.610;11.136;2023-07-29T01:30:57;5.03;;;2.55;;
15254;SDS011;7730;49.610;11.136;2023-07-29T01:33:25;5.95;;;2.60;;
15254;SDS011;7730;49.610;11.136;2023-07-29T01:35:54;6.03;;;2.70;;
15254;SDS011;7730;49.610;11.136;2023-07-29T01:38:24;5.95;;;2.70;;
15254;SDS011;7730;49.610;11.136;2023-07-29T01:40:57;5.85;;;2.60;;
15254;SDS011;7730;49.610;11.136;2023-07-29T01:43:26;6.68;;;2.60;;
15254;SDS011;7730;49.610;11.136;2023-07-29T01:45:53;4.95;;;2.63;;
15254;SDS011;7730;49.610;11.136;2023-07-29T01:48:20;7.03;;;2.53;;
15254;SDS011;7730;49.610;11.136;2023-07-29T01:50:47;4.78;;;2.40;;
15254;SDS011;7730;49.610;11.136;2023-07-29T01:53:14;6.32;;;2.50;;
15254;SDS011;7730;49.610;11.136;2023-07-29T01:55:42;5.63;;;2.60;;
15254;SDS011;7730;49.610;11.136;2023-07-29T01:58:11;4.15;;;2.50;;
15254;SDS011;7730;49.610;11.136;2023-07-29T02:00:38;5.95;;;2.72;;
15254;SDS011;7730;49.610;11.136;2023-07-29T02:03:05;5.00;;;2.50;;
15254;SDS011;7730;49.610;11.136;2023-07-29T02:05:32;6.68;;;2.70;;
15254;SDS011;7730;49.610;11.136;2023-07-29T02:07:59;5.55;;;2.65;;
15254;SDS011;7730;49.610;11.136;2023-07-29T02:10:26;6.55;;;3.05;;
15254;SDS011;7730;49.610;11.136;2023-07-29T02:12:53;3.65;;;2.40;;
15254;SDS011;7730;49.610;11.136;2023-07-29T02:15:21;6.25;;;2.55;;
15254;SDS011;7730;49.610;11.136;2023-07-29T02:17:49;6.85;;;2.50;;
15254;SDS011;7730;49.610;11.136;2023-07-29T02:20:17;4.40;;;2.72;;
15254;SDS011;7730;49.610;11.136;2023-07-29T02:22:44;4.55;;;2.72;;
15254;SDS011;7730;49.610;11.136;2023-07-29T02:25:11;5.78;;;2.75;;
15254;SDS011;7730;49.610;11.136;2023-07-29T02:27:38;4.88;;;2.67;;
15254;SDS011;7730;49.610;11.136;2023-07-29T02:30:05;4.70;;;2.50;;
15254;SDS011;7730;49.610;11.136;2023-07-29T02:32:35;5.90;;;2.53;;
15254;SDS011;7730;49.610;11.136;2023-07-29T02:35:03;3.80;;;2.55;;
15254;SDS011;7730;49.610;11.136;2023-07-29T02:37:30;5.95;;;3.00;;
15254;SDS011;7730;49.610;11.136;2023-07-29T02:39:57;7.25;;;3.00;;
15254;SDS011;7730;49.610;11.136;2023-07-29T02:42:24;5.40;;;2.85;;
15254;SDS011;7730;49.610;11.136;2023-07-29T02:44:51;7.10;;;2.80;;
15254;SDS011;7730;49.610;11.136;2023-07-29T02:47:18;5.50;;;2.70;;
15254;SDS011;7730;49.610;11.136;2023-07-29T02:49:47;5.18;;;2.67;;
15254;SDS011;7730;49.610;11.136;2023-07-29T02:52:14;4.07;;;2.80;;
15254;SDS011;7730;49.610;11.136;2023-07-29T02:54:41;9.07;;;3.60;;
15254;SDS011;7730;49.610;11.136;2023-07-29T02:57:08;6.85;;;2.90;;
15254;SDS011;7730;49.610;11.136;2023-07-29T02:59:35;4.70;;;2.80;;
15254;SDS011;7730;49.610;11.136;2023-07-29T03:02:02;5.22;;;3.00;;
15254;SDS011;7730;49.610;11.136;2023-07-29T03:04:29;4.82;;;2.83;;
15254;SDS011;7730;49.610;11.136;2023-07-29T03:06:57;6.82;;;2.97;;
15254;SDS011;7730;49.610;11.136;2023-07-29T03:09:25;7.85;;;3.10;;
15254;SDS011;7730;49.610;11.136;2023-07-29T03:11:52;6.68;;;3.05;;
15254;SDS011;7730;49.610;11.136;2023-07-29T03:14:19;6.72;;;2.95;;
15254;SDS011;7730;49.610;11.136;2023-07-29T03:16:46;8.13;;;3.00;;
15254;SDS011;7730;49.610;11.136;2023-07-29T03:19:14;8.18;;;2.97;;
15254;SDS011;7730;49.610;11.136;2023-07-29T03:21:41;6.38;;;2.95;;
15254;SDS011;7730;49.610;11.136;2023-07-29T03:24:10;4.75;;;3.03;;
15254;SDS011;7730;49.610;11.136;2023-07-29T03:26:37;7.82;;;3.50;;
15254;SDS011;7730;49.610;11.136;2023-07-29T03:29:04;7.50;;;3.50;;
15254;SDS011;7730;49.610;11.136;2023-07-29T03:31:31;6.88;;;3.40;;
15254;SDS011;7730;49.610;11.136;2023-07-29T03:33:58;8.80;;;3.60;;
15254;SDS011;7730;49.610;11.136;2023-07-29T03:36:25;7.32;;;3.50;;
15254;SDS011;7730;49.610;11.136;2023-07-29T03:38:52;6.00;;;3.28;;
15254;SDS011;7730;49.610;11.136;2023-07-29T03:41:20;6.82;;;3.33;;
15254;SDS011;7730;49.610;11.136;2023-07-29T03:43:47;6.25;;;3.33;;
15254;SDS011;7730;49.610;11.136;2023-07-29T03:46:14;8.07;;;3.40;;
15254;SDS011;7730;49.610;11.136;2023-07-29T03:48:44;10.15;;;4.03;;
15254;SDS011;7730;49.610;11.136;2023-07-29T03:51:11;10.27;;;4.10;;
15254;SDS011;7730;49.610;11.136;2023-07-29T03:53:38;9.65;;;3.80;;
15254;SDS011;7730;49.610;11.136;2023-07-29T03:56:05;7.70;;;3.47;;
15254;SDS011;7730;49.610;11.136;2023-07-29T03:58:34;7.05;;;3.60;;
15254;SDS011;7730;49.610;11.136;2023-07-29T04:01:01;8.10;;;3.67;;
15254;SDS011;7730;49.610;11.136;2023-07-29T04:03:29;8.13;;;3.30;;
15254;SDS011;7730;49.610;11.136;2023-07-29T04:05:56;7.70;;;3.28;;
15254;SDS011;7730;49.610;11.136;2023-07-29T04:08:23;6.55;;;3.30;;
15254;SDS011;7730;49.610;11.136;2023-07-29T04:10:50;8.65;;;3.33;;
15254;SDS011;7730;49.610;11.136;2023-07-29T04:13:17;7.25;;;3.40;;
15254;SDS011;7730;49.610;11.136;2023-07-29T04:15:46;6.78;;;3.35;;
15254;SDS011;7730;49.610;11.136;2023-07-29T04:18:13;6.53;;;3.35;;
15254;SDS011;7730;49.610;11.136;2023-07-29T04:20:40;6.75;;;3.53;;
15254;SDS011;7730;49.610;11.136;2023-07-29T04:23:07;7.80;;;3.45;;
15254;SDS011;7730;49.610;11.136;2023-07-29T04:25:34;7.97;;;3.40;;
15254;SDS011;7730;49.610;11.136;2023-07-29T04:28:01;7.93;;;3.30;;
15254;SDS011;7730;49.610;11.136;2023-07-29T04:30:30;7.03;;;3.40;;
15254;SDS011;7730;49.610;11.136;2023-07-29T04:32:58;6.35;;;3.40;;
15254;SDS011;7730;49.610;11.136;2023-07-29T04:35:25;7.70;;;3.40;;
15254;SDS011;7730;49.610;11.136;2023-07-29T04:37:52;7.88;;;3.60;;
15254;SDS011;7730;49.610;11.136;2023-07-29T04:40:19;6.25;;;3.30;;
15254;SDS011;7730;49.610;11.136;2023-07-29T04:42:47;6.63;;;3.20;;
15254;SDS011;7730;49.610;11.136;2023-07-29T04:45:14;5.85;;;3.20;;
15254;SDS011;7730;49.610;11.136;2023-07-29T04:47:42;7.35;;;3.20;;
15254;SDS011;7730;49.610;11.136;2023-07-29T04:50:10;7.47;;;3.10;;
15254;SDS011;7730;49.610;11.136;2023-07-29T04:52:37;6.63;;;2.70;;
15254;SDS011;7730;49.610;11.136;2023-07-29T04:55:04;6.63;;;2.97;;
15254;SDS011;7730;49.610;11.136;2023-07-29T04:57:31;6.97;;;3.20;;
15254;SDS011;7730;49.610;11.136;2023-07-29T04:59:59;6.38;;;2.90;;
15254;SDS011;7730;49.610;11.136;2023-07-29T05:02:25;5.53;;;2.90;;
15254;SDS011;7730;49.610;11.136;2023-07-29T05:04:53;6.22;;;3.03;;
15254;SDS011;7730;49.610;11.136;2023-07-29T05:07:21;6.68;;;3.10;;
15254;SDS011;7730;49.610;11.136;2023-07-29T05:09:48;4.72;;;2.67;;
15254;SDS011;7730;49.610;11.136;2023-07-29T05:12:15;5.90;;;2.80;;
15254;SDS011;7730;49.610;11.136;2023-07-29T05:14:42;6.78;;;3.20;;
15254;SDS011;7730;49.610;11.136;2023-07-29T05:17:09;4.97;;;2.65;;
15254;SDS011;7730;49.610;11.136;2023-07-29T05:19:36;5.05;;;2.53;;
15254;SDS011;7730;49.610;11.136;2023-07-29T05:22:03;6.95;;;2.60;;
15254;SDS011;7730;49.610;11.136;2023-07-29T05:24:32;5.18;;;2.72;;
15254;SDS011;7730;49.610;11.136;2023-07-29T05:26:59;4.55;;;2.50;;
15254;SDS011;7730;49.610;11.136;2023-07-29T05:29:26;4.93;;;2.60;;
15254;SDS011;7730;49.610;11.136;2023-07-29T05:31:53;5.00;;;2.53;;
15254;SDS011;7730;49.610;11.136;2023-07-29T05:34:20;6.53;;;2.72;;
15254;SDS011;7730;49.610;11.136;2023-07-29T05:36:47;4.18;;;2.60;;
15254;SDS011;7730;49.610;11.136;2023-07-29T05:39:14;5.18;;;2.70;;
15254;SDS011;7730;49.610;11.136;2023-07-29T05:41:42;4.35;;;2.65;;
15254;SDS011;7730;49.610;11.136;2023-07-29T05:44:10;4.15;;;2.42;;
15254;SDS011;7730;49.610;11.136;2023-07-29T05:46:37;3.95;;;2.40;;
15254;SDS011;7730;49.610;11.136;2023-07-29T05:49:04;5.78;;;2.63;;
15254;SDS011;7730;49.610;11.136;2023-07-29T05:51:32;5.20;;;2.55;;
15254;SDS011;7730;49.610;11.136;2023-07-29T05:53:59;4.50;;;2.58;;
15254;SDS011;7730;49.610;11.136;2023-07-29T05:56:26;4.32;;;2.40;;
15254;SDS011;7730;49.610;11.136;2023-07-29T05:58:54;6.07;;;2.50;;
15254;SDS011;7730;49.610;11.136;2023-07-29T06:01:21;3.63;;;2.20;;
15254;SDS011;7730;49.610;11.136;2023-07-29T06:03:48;5.05;;;2.20;;
15254;SDS011;7730;49.610;11.136;2023-07-29T06:06:15;3.58;;;2.25;;
15254;SDS011;7730;49.610;11.136;2023-07-29T06:08:42;5.05;;;2.30;;
15254;SDS011;7730;49.610;11.136;2023-07-29T06:11:09;4.88;;;2.20;;
15254;SDS011;7730;49.610;11.136;2023-07-29T06:13:36;4.30;;;2.17;;
15254;SDS011;7730;49.610;11.136;2023-07-29T06:16:05;4.28;;;2.40;;
15254;SDS011;7730;49.610;11.136;2023-07-29T06:18:32;3.95;;;2.15;;
15254;SDS011;7730;49.610;11.136;2023-07-29T06:20:59;4.68;;;2.13;;
15254;SDS011;7730;49.610;11.136;2023-07-29T06:23:26;3.17;;;2.10;;
15254;SDS011;7730;49.610;11.136;2023-07-29T06:25:53;3.92;;;2.00;;
15254;SDS011;7730;49.610;11.136;2023-07-29T06:28:20;3.55;;;2.10;;
15254;SDS011;7730;49.610;11.136;2023-07-29T06:30:47;5.00;;;1.95;;
15254;SDS011;7730;49.610;11.136;2023-07-29T06:33:15;14.05;;;3.08;;
15254;SDS011;7730;49.610;11.136;2023-07-29T06:35:42;4.88;;;2.00;;
15254;SDS011;7730;49.610;11.136;2023-07-29T06:38:09;7.88;;;2.15;;
15254;SDS011;7730;49.610;11.136;2023-07-29T06:40:36;4.63;;;2.08;;
15254;SDS011;7730;49.610;11.136;2023-07-29T06:43:03;7.20;;;2.15;;
15254;SDS011;7730;49.610;11.136;2023-07-29T06:45:30;6.20;;;2.00;;
15254;SDS011;7730;49.610;11.136;2023-07-29T06:47:57;6.93;;;2.10;;
15254;SDS011;7730;49.610;11.136;2023-07-29T06:50:26;6.72;;;2.30;;
15254;SDS011;7730;49.610;11.136;2023-07-29T06:52:53;8.60;;;2.40;;
15254;SDS011;7730;49.610;11.136;2023-07-29T06:55:20;6.05;;;2.50;;
15254;SDS011;7730;49.610;11.136;2023-07-29T06:57:47;11.45;;;3.30;;
15254;SDS011;7730;49.610;11.136;2023-07-29T07:00:14;10.45;;;2.92;;
15254;SDS011;7730;49.610;11.136;2023-07-29T07:02:41;6.75;;;2.67;;
15254;SDS011;7730;49.610;11.136;2023-07-29T07:05:08;9.18;;;2.85;;
15254;SDS011;7730;49.610;11.136;2023-07-29T07:07:37;4.57;;;2.45;;
15254;SDS011;7730;49.610;11.136;2023-07-29T07:10:04;7.60;;;2.58;;
15254;SDS011;7730;49.610;11.136;2023-07-29T07:12:31;6.38;;;2.53;;
15254;SDS011;7730;49.610;11.136;2023-07-29T07:14:59;6.72;;;2.60;;
15254;SDS011;7730;49.610;11.136;2023-07-29T07:17:26;7.28;;;2.65;;
15254;SDS011;7730;49.610;11.136;2023-07-29T07:19:53;6.63;;;2.50;;
15254;SDS011;7730;49.610;11.136;2023-07-29T07:22:20;5.93;;;2.75;;
15254;SDS011;7730;49.610;11.136;2023-07-29T07:24:49;6.88;;;2.88;;
15254;SDS011;7730;49.610;11.136;2023-07-29T07:27:16;5.43;;;2.50;;
15254;SDS011;7730;49.610;11.136;2023-07-29T07:29:43;7.30;;;2.65;;
15254;SDS011;7730;49.610;11.136;2023-07-29T07:32:10;5.70;;;2.30;;
15254;SDS011;7730;49.610;11.136;2023-07-29T07:34:37;4.93;;;2.20;;
15254;SDS011;7730;49.610;11.136;2023-07-29T07:37:04;4.55;;;2.50;;
15254;SDS011;7730;49.610;11.136;2023-07-29T07:39:31;5.03;;;2.33;;
15254;SDS011;7730;49.610;11.136;2023-07-29T07:41:59;5.15;;;2.50;;
15254;SDS011;7730;49.610;11.136;2023-07-29T07:44:26;5.10;;;2.63;;
15254;SDS011;7730;49.610;11.136;2023-07-29T07:46:53;4.93;;;2.70;;
15254;SDS011;7730;49.610;11.136;2023-07-29T07:49:21;4.13;;;2.22;;
15254;SDS011;7730;49.610;11.136;2023-07-29T07:51:48;5.53;;;2.20;;
15254;SDS011;7730;49.610;11.136;2023-07-29T07:54:15;5.00;;;2.20;;
15254;SDS011;7730;49.610;11.136;2023-07-29T07:56:42;5.50;;;2.60;;
15254;SDS011;7730;49.610;11.136;2023-07-29T07:59:11;6.47;;;2.63;;
15254;SDS011;7730;49.610;11.136;2023-07-29T08:01:38;7.10;;;2.70;;
15254;SDS011;7730;49.610;11.136;2023-07-29T08:04:05;8.30;;;2.70;;
15254;SDS011;7730;49.610;11.136;2023-07-29T08:06:32;5.97;;;2.45;;
15254;SDS011;7730;49.610;11.136;2023-07-29T08:09:00;4.32;;;2.30;;
15254;SDS011;7730;49.610;11.136;2023-07-29T08:11:27;5.07;;;2.20;;
15254;SDS011;7730;49.610;11.136;2023-07-29T08:13:54;6.95;;;2.25;;
15254;SDS011;7730;49.610;11.136;2023-07-29T08:16:22;5.53;;;2.40;;
15254;SDS011;7730;49.610;11.136;2023-07-29T08:18:49;3.50;;;2.00;;
15254;SDS011;7730;49.610;11.136;2023-07-29T08:21:16;5.72;;;2.40;;
15254;SDS011;7730;49.610;11.136;2023-07-29T08:23:43;4.70;;;2.10;;
15254;SDS011;7730;49.610;11.136;2023-07-29T08:26:10;6.13;;;2.50;;
15254;SDS011;7730;49.610;11.136;2023-07-29T08:28:38;2.92;;;1.90;;
15254;SDS011;7730;49.610;11.136;2023-07-29T08:31:06;5.07;;;2.00;;
15254;SDS011;7730;49.610;11.136;2023-07-29T08:33:35;4.68;;;2.00;;
15254;SDS011;7730;49.610;11.136;2023-07-29T08:36:02;5.65;;;2.20;;
15254;SDS011;7730;49.610;11.136;2023-07-29T08:38:29;6.80;;;2.25;;
15254;SDS011;7730;49.610;11.136;2023-07-29T08:40:58;6.13;;;1.98;;
15254;SDS011;7730;49.610;11.136;2023-07-29T08:43:26;5.25;;;2.20;;
15254;SDS011;7730;49.610;11.136;2023-07-29T08:45:55;4.95;;;2.20;;
15254;SDS011;7730;49.610;11.136;2023-07-29T08:48:26;6.53;;;2.22;;
15254;SDS011;7730;49.610;11.136;2023-07-29T08:50:57;5.55;;;2.25;;
15254;SDS011;7730;49.610;11.136;2023-07-29T08:53:25;6.40;;;2.30;;
15254;SDS011;7730;49.610;11.136;2023-07-29T08:55:53;4.85;;;2.47;;
15254;SDS011;7730;49.610;11.136;2023-07-29T08:58:21;4.35;;;2.30;;
15254;SDS011;7730;49.610;11.136;2023-07-29T09:00:48;5.68;;;2.40;;
15254;SDS011;7730;49.610;11.136;2023-07-29T09:03:16;3.42;;;2.17;;
15254;SDS011;7730;49.610;11.136;2023-07-29T09:05:43;4.65;;;2.28;;
15254;SDS011;7730;49.610;11.136;2023-07-29T09:08:11;5.55;;;2.40;;
15254;SDS011;7730;49.610;11.136;2023-07-29T09:10:38;5.53;;;2.58;;
15254;SDS011;7730;49.610;11.136;2023-07-29T09:13:06;4.95;;;2.42;;
15254;SDS011;7730;49.610;11.136;2023-07-29T09:15:34;6.28;;;2.70;;
15254;SDS011;7730;49.610;11.136;2023-07-29T09:18:08;7.00;;;2.50;;
15254;SDS011;7730;49.610;11.136;2023-07-29T09:20:35;4.90;;;2.70;;
15254;SDS011;7730;49.610;11.136;2023-07-29T09:23:02;5.72;;;2.55;;
15254;SDS011;7730;49.610;11.136;2023-07-29T09:25:31;4.35;;;2.60;;
15254;SDS011;7730;49.610;11.136;2023-07-29T09:27:58;4.85;;;2.60;;
15254;SDS011;7730;49.610;11.136;2023-07-29T09:30:25;4.55;;;2.20;;
15254;SDS011;7730;49.610;11.136;2023-07-29T09:32:54;5.38;;;2.42;;
15254;SDS011;7730;49.610;11.136;2023-07-29T09:35:22;5.70;;;2.60;;
15254;SDS011;7730;49.610;11.136;2023-07-29T09:37:50;5.93;;;2.60;;
15254;SDS011;7730;49.610;11.136;2023-07-29T09:40:17;4.43;;;2.20;;
15254;SDS011;7730;49.610;11.136;2023-07-29T09:42:49;4.18;;;1.98;;
15254;SDS011;7730;49.610;11.136;2023-07-29T09:45:23;2.22;;;1.73;;
15254;SDS011;7730;49.610;11.136;2023-07-29T09:47:50;4.10;;;1.73;;
15254;SDS011;7730;49.610;11.136;2023-07-29T09:50:17;6.10;;;1.90;;
15254;SDS011;7730;49.610;11.136;2023-07-29T09:52:44;5.35;;;1.98;;
15254;SDS011;7730;49.610;11.136;2023-07-29T09:55:13;5.72;;;1.80;;
15254;SDS011;7730;49.610;11.136;2023-07-29T09:57:44;4.72;;;1.80;;
15254;SDS011;7730;49.610;11.136;2023-07-29T10:00:13;5.18;;;2.00;;
15254;SDS011;7730;49.610;11.136;2023-07-29T10:02:42;4.43;;;1.90;;
15254;SDS011;7730;49.610;11.136;2023-07-29T10:05:09;4.40;;;1.95;;
15254;SDS011;7730;49.610;11.136;2023-07-29T10:07:37;3.05;;;1.90;;
15254;SDS011;7730;49.610;11.136;2023-07-29T10:10:04;4.97;;;2.20;;
15254;SDS011;7730;49.610;11.136;2023-07-29T10:12:32;4.68;;;2.10;;
15254;SDS011;7730;49.610;11.136;2023-07-29T10:14:59;4.68;;;2.00;;
15254;SDS011;7730;49.610;11.136;2023-07-29T10:17:28;2.78;;;1.90;;
15254;SDS011;7730;49.610;11.136;2023-07-29T10:19:56;3.30;;;1.85;;
15254;SDS011;7730;49.610;11.136;2023-07-29T10:22:24;6.30;;;2.10;;
15254;SDS011;7730;49.610;11.136;2023-07-29T10:24:52;4.63;;;2.00;;
15254;SDS011;7730;49.610;11.136;2023-07-29T10:27:20;5.40;;;2.15;;
15254;SDS011;7730;49.610;11.136;2023-07-29T10:29:48;5.55;;;2.13;;
15254;SDS011;7730;49.610;11.136;2023-07-29T10:32:16;4.65;;;2.15;;
15254;SDS011;7730;49.610;11.136;2023-07-29T10:34:44;4.50;;;2.20;;
15254;SDS011;7730;49.610;11.136;2023-07-29T10:37:11;4.60;;;2.20;;
15254;SDS011;7730;49.610;11.136;2023-07-29T10:39:38;4.80;;;2.17;;
15254;SDS011;7730;49.610;11.136;2023-07-29T10:42:06;5.25;;;2.20;;
15254;SDS011;7730;49.610;11.136;2023-07-29T10:44:45;5.32;;;2.50;;
15254;SDS011;7730;49.610;11.136;2023-07-29T10:47:14;4.20;;;2.40;;
15254;SDS011;7730;49.610;11.136;2023-07-29T10:49:41;3.55;;;2.20;;
15254;SDS011;7730;49.610;11.136;2023-07-29T10:52:10;3.05;;;1.90;;
15254;SDS011;7730;49.610;11.136;2023-07-29T10:54:41;3.20;;;2.15;;
15254;SDS011;7730;49.610;11.136;2023-07-29T10:57:12;4.70;;;2.30;;
15254;SDS011;7730;49.610;11.136;2023-07-29T10:59:39;6.38;;;2.20;;
15254;SDS011;7730;49.610;11.136;2023-07-29T11:02:15;4.03;;;2.42;;
15254;SDS011;7730;49.610;11.136;2023-07-29T11:04:46;4.00;;;2.28;;
15254;SDS011;7730;49.610;11.136;2023-07-29T11:07:27;6.47;;;2.70;;
15254;SDS011;7730;49.610;11.136;2023-07-29T11:09:56;6.38;;;2.50;;
15254;SDS011;7730;49.610;11.136;2023-07-29T11:12:42;7.03;;;2.60;;
15254;SDS011;7730;49.610;11.136;2023-07-29T11:15:14;4.97;;;2.38;;
15254;SDS011;7730;49.610;11.136;2023-07-29T11:17:42;4.85;;;2.38;;
15254;SDS011;7730;49.610;11.136;2023-07-29T11:20:10;4.55;;;2.55;;
15254;SDS011;7730;49.610;11.136;2023-07-29T11:22:38;4.47;;;2.28;;
15254;SDS011;7730;49.610;11.136;2023-07-29T11:25:07;5.47;;;2.40;;
15254;SDS011;7730;49.610;11.136;2023-07-29T11:27:34;3.90;;;2.10;;
15254;SDS011;7730;49.610;11.136;2023-07-29T11:30:02;5.22;;;2.55;;
15254;SDS011;7730;49.610;11.136;2023-07-29T11:32:30;6.60;;;2.53;;
15254;SDS011;7730;49.610;11.136;2023-07-29T11:35:00;12.25;;;2.60;;
15254;SDS011;7730;49.610;11.136;2023-07-29T11:37:27;6.03;;;2.72;;
15254;SDS011;7730;49.610;11.136;2023-07-29T11:39:56;5.30;;;2.60;;
15254;SDS011;7730;49.610;11.136;2023-07-29T11:42:23;4.45;;;2.30;;
15254;SDS011;7730;49.610;11.136;2023-07-29T11:44:50;4.32;;;2.38;;
15254;SDS011;7730;49.610;11.136;2023-07-29T11:47:17;3.28;;;2.25;;
15254;SDS011;7730;49.610;11.136;2023-07-29T11:49:44;3.65;;;2.10;;
15254;SDS011;7730;49.610;11.136;2023-07-29T11:52:11;3.80;;;2.15;;
15254;SDS011;7730;49.610;11.136;2023-07-29T11:54:39;5.13;;;2.40;;
15254;SDS011;7730;49.610;11.136;2023-07-29T11:57:08;3.90;;;2.20;;
15254;SDS011;7730;49.610;11.136;2023-07-29T11:59:35;3.97;;;2.33;;
15254;SDS011;7730;49.610;11.136;2023-07-29T12:02:05;6.10;;;2.50;;
15254;SDS011;7730;49.610;11.136;2023-07-29T12:04:32;5.72;;;2.35;;
15254;SDS011;7730;49.610;11.136;2023-07-29T12:07:00;4.65;;;2.45;;
15254;SDS011;7730;49.610;11.136;2023-07-29T12:09:27;2.78;;;1.90;;
15254;SDS011;7730;49.610;11.136;2023-07-29T12:11:55;2.30;;;1.70;;
15254;SDS011;7730;49.610;11.136;2023-07-29T12:14:26;4.43;;;1.95;;
15254;SDS011;7730;49.610;11.136;2023-07-29T12:16:53;2.72;;;2.05;;
15254;SDS011;7730;49.610;11.136;2023-07-29T12:19:20;4.07;;;2.00;;
15254;SDS011;7730;49.610;11.136;2023-07-29T12:21:48;3.97;;;2.00;;
15254;SDS011;7730;49.610;11.136;2023-07-29T12:24:15;3.75;;;2.13;;
15254;SDS011;7730;49.610;11.136;2023-07-29T12:26:42;4.97;;;2.10;;
15254;SDS011;7730;49.610;11.136;2023-07-29T12:29:12;5.32;;;2.20;;
15254;SDS011;7730;49.610;11.136;2023-07-29T12:31:41;2.88;;;1.90;;
15254;SDS011;7730;49.610;11.136;2023-07-29T12:34:08;3.33;;;2.10;;
15254;SDS011;7730;49.610;11.136;2023-07-29T12:36:42;3.97;;;1.88;;
15254;SDS011;7730;49.610;11.136;2023-07-29T12:39:16;4.75;;;2.03;;
15254;SDS011;7730;49.610;11.136;2023-07-29T12:41:43;3.97;;;1.98;;
15254;SDS011;7730;49.610;11.136;2023-07-29T12:44:10;4.50;;;2.00;;
15254;SDS011;7730;49.610;11.136;2023-07-29T12:46:37;4.82;;;1.83;;
15254;SDS011;7730;49.610;11.136;2023-07-29T12:49:06;3.35;;;1.70;;
15254;SDS011;7730;49.610;11.136;2023-07-29T12:51:33;5.03;;;2.00;;
15254;SDS011;7730;49.610;11.136;2023-07-29T12:54:01;3.78;;;1.90;;
15254;SDS011;7730;49.610;11.136;2023-07-29T12:56:29;2.67;;;1.70;;
15254;SDS011;7730;49.610;11.136;2023-07-29T12:58:56;4.07;;;1.90;;
15254;SDS011;7730;49.610;11.136;2023-07-29T13:01:23;4.70;;;1.83;;
15254;SDS011;7730;49.610;11.136;2023-07-29T13:03:50;2.28;;;1.80;;
15254;SDS011;7730;49.610;11.136;2023-07-29T13:06:19;4.93;;;1.90;;
15254;SDS011;7730;49.610;11.136;2023-07-29T13:08:46;3.33;;;1.80;;
15254;SDS011;7730;49.610;11.136;2023-07-29T13:11:13;3.80;;;1.60;;
15254;SDS011;7730;49.610;11.136;2023-07-29T13:13:41;3.10;;;1.80;;
15254;SDS011;7730;49.610;11.136;2023-07-29T13:16:08;2.60;;;1.80;;
15254;SDS011;7730;49.610;11.136;2023-07-29T13:18:35;4.78;;;1.98;;
15254;SDS011;7730;49.610;11.136;2023-07-29T13:21:02;3.53;;;1.90;;
15254;SDS011;7730;49.610;11.136;2023-07-29T13:23:30;3.60;;;1.77;;
15254;SDS011;7730;49.610;11.136;2023-07-29T13:25:57;3.22;;;1.90;;
15254;SDS011;7730;49.610;11.136;2023-07-29T13:28:24;3.70;;;1.80;;
15254;SDS011;7730;49.610;11.136;2023-07-29T13:30:51;4.80;;;2.00;;
15254;SDS011;7730;49.610;11.136;2023-07-29T13:33:18;2.97;;;2.03;;
15254;SDS011;7730;49.610;11.136;2023-07-29T13:35:46;2.47;;;1.90;;
15254;SDS011;7730;49.610;11.136;2023-07-29T13:38:13;3.83;;;2.00;;
15254;SDS011;7730;49.610;11.136;2023-07-29T13:40:41;5.22;;;2.15;;
15254;SDS011;7730;49.610;11.136;2023-07-29T13:43:08;3.40;;;2.00;;
15254;SDS011;7730;49.610;11.136;2023-07-29T13:45:35;2.20;;;1.70;;
15254;SDS011;7730;49.610;11.136;2023-07-29T13:48:02;3.60;;;2.00;;
15254;SDS011;7730;49.610;11.136;2023-07-29T13:50:29;2.80;;;1.90;;
15254;SDS011;7730;49.610;11.136;2023-07-29T13:52:56;5.35;;;2.25;;
15254;SDS011;7730;49.610;11.136;2023-07-29T13:55:23;3.28;;;2.10;;
15254;SDS011;7730;49.610;11.136;2023-07-29T13:57:52;4.88;;;2.03;;
15254;SDS011;7730;49.610;11.136;2023-07-29T14:00:19;4.18;;;2.00;;
15254;SDS011;7730;49.610;11.136;2023-07-29T14:02:46;3.05;;;1.70;;
15254;SDS011;7730;49.610;11.136;2023-07-29T14:05:13;2.83;;;1.80;;
15254;SDS011;7730;49.610;11.136;2023-07-29T14:07:40;3.30;;;1.60;;
15254;SDS011;7730;49.610;11.136;2023-07-29T14:10:07;3.78;;;1.67;;
15254;SDS011;7730;49.610;11.136;2023-07-29T14:12:34;1.38;;;1.27;;
15254;SDS011;7730;49.610;11.136;2023-07-29T14:15:03;1.73;;;1.48;;
15254;SDS011;7730;49.610;11.136;2023-07-29T14:17:31;2.83;;;1.30;;
15254;SDS011;7730;49.610;11.136;2023-07-29T14:19:58;2.35;;;1.33;;
15254;SDS011;7730;49.610;11.136;2023-07-29T14:22:25;2.63;;;1.40;;
15254;SDS011;7730;49.610;11.136;2023-07-29T14:24:52;2.33;;;1.60;;
15254;SDS011;7730;49.610;11.136;2023-07-29T14:27:19;2.30;;;1.58;;
15254;SDS011;7730;49.610;11.136;2023-07-29T14:29:46;3.38;;;1.40;;
15254;SDS011;7730;49.610;11.136;2023-07-29T14:32:14;1.67;;;1.50;;
15254;SDS011;7730;49.610;11.136;2023-07-29T14:34:41;1.75;;;1.50;;
15254;SDS011;7730;49.610;11.136;2023-07-29T14:37:08;2.72;;;1.40;;
15254;SDS011;7730;49.610;11.136;2023-07-29T14:39:35;4.50;;;1.50;;
15254;SDS011;7730;49.610;11.136;2023-07-29T14:42:03;1.60;;;1.50;;
15254;SDS011;7730;49.610;11.136;2023-07-29T14:44:30;2.42;;;1.52;;
15254;SDS011;7730;49.610;11.136;2023-07-29T14:46:57;3.03;;;1.60;;
15254;SDS011;7730;49.610;11.136;2023-07-29T14:49:25;1.98;;;1.50;;
15254;SDS011;7730;49.610;11.136;2023-07-29T14:51:52;1.63;;;1.30;;